createdAt,value
2017-09-12T00:01:37.941Z,96185.84
2017-09-12T00:04:05.501Z,96196.03
2017-09-12T00:06:33.060Z,96196.06
2017-09-12T00:09:00.668Z,96192.27
2017-09-12T00:11:28.223Z,96184.64
2017-09-12T00:13:55.787Z,96180.88
2017-09-12T00:16:24.073Z,96181.80
2017-09-12T00:18:51.617Z,96178.02
2017-09-12T00:21:19.187Z,96176.75
2017-09-12T00:23:46.776Z,96182.67
2017-09-12T00:26:14.344Z,96176.72
2017-09-12T00:28:41.946Z,96186.95
2017-09-12T00:31:09.511Z,96186.12
2017-09-12T00:33:37.115Z,96187.41
2017-09-12T00:36:04.715Z,96186.14
2017-09-12T00:38:32.272Z,96191.29
2017-09-12T00:40:59.845Z,96189.62
2017-09-12T00:43:27.408Z,96193.88
2017-09-12T00:45:54.983Z,96193.51
2017-09-12T00:48:22.591Z,96195.68
2017-09-12T00:50:50.143Z,96199.94
2017-09-12T00:53:17.697Z,96199.56
2017-09-12T00:55:45.304Z,96205.16
2017-09-12T00:58:12.859Z,96203.50
2017-09-12T01:00:40.695Z,96195.88
2017-09-12T01:03:08.259Z,96198.02
2017-09-12T01:05:35.848Z,96193.38
2017-09-12T01:08:03.426Z,96190.02
2017-09-12T01:10:31.410Z,96189.19
2017-09-12T01:13:00.100Z,96183.70
2017-09-12T01:15:27.745Z,96188.39
2017-09-12T01:17:55.304Z,96189.27
2017-09-12T01:20:22.905Z,96182.87
2017-09-12T01:22:50.470Z,96183.79
2017-09-12T01:25:18.357Z,96180.52
2017-09-12T01:27:45.910Z,96183.53
2017-09-12T01:30:13.471Z,96187.77
2017-09-12T01:32:41.040Z,96200.47
2017-09-12T01:35:08.590Z,96193.30
2017-09-12T01:37:36.448Z,96191.59
2017-09-12T01:40:04.401Z,96188.63
2017-09-12T01:42:31.956Z,96202.20
2017-09-12T01:44:59.551Z,96198.80
2017-09-12T01:47:27.117Z,96194.16
2017-09-12T01:49:54.979Z,96196.70
2017-09-12T01:52:22.532Z,96193.30
2017-09-12T01:54:50.087Z,96196.69
2017-09-12T01:57:17.943Z,96183.94
2017-09-12T01:59:45.506Z,96183.91
2017-09-12T02:02:13.076Z,96175.45
2017-09-12T02:04:40.650Z,96185.22
2017-09-12T02:07:08.188Z,96179.70
2017-09-12T02:09:36.230Z,96178.89
2017-09-12T02:12:03.802Z,96183.55
2017-09-12T02:14:31.643Z,96182.25
2017-09-12T02:16:59.220Z,96183.13
2017-09-12T02:19:26.760Z,96184.82
2017-09-12T02:21:54.343Z,96193.80
2017-09-12T02:24:21.943Z,96202.73
2017-09-12T02:26:49.537Z,96199.38
2017-09-12T02:29:17.124Z,96196.46
2017-09-12T02:31:44.946Z,96184.99
2017-09-12T02:34:12.515Z,96186.69
2017-09-12T02:36:40.077Z,96191.80
2017-09-12T02:39:07.878Z,96192.20
2017-09-12T02:41:35.448Z,96191.77
2017-09-12T02:44:03.291Z,96188.78
2017-09-12T02:46:30.848Z,96186.62
2017-09-12T02:48:58.478Z,96183.65
2017-09-12T02:51:26.052Z,96181.09
2017-09-12T02:53:53.625Z,96179.81
2017-09-12T02:56:21.566Z,96181.91
2017-09-12T02:58:49.125Z,96186.16
2017-09-12T03:01:16.707Z,96183.18
2017-09-12T03:03:44.409Z,96184.50
2017-09-12T03:06:11.957Z,96194.67
2017-09-12T03:08:40.556Z,96187.51
2017-09-12T03:11:08.197Z,96182.41
2017-09-12T03:13:36.714Z,96190.47
2017-09-12T03:16:04.311Z,96187.48
2017-09-12T03:18:31.906Z,96199.36
2017-09-12T03:20:59.770Z,96196.77
2017-09-12T03:23:27.335Z,96195.91
2017-09-12T03:25:54.904Z,96189.55
2017-09-12T03:28:22.500Z,96183.59
2017-09-12T03:30:50.066Z,96183.98
2017-09-12T03:33:17.909Z,96172.09
2017-09-12T03:35:45.464Z,96175.05
2017-09-12T03:38:13.018Z,96170.84
2017-09-12T03:40:40.681Z,96172.97
2017-09-12T03:43:08.241Z,96176.80
2017-09-12T03:45:36.114Z,96175.11
2017-09-12T03:48:03.668Z,96170.00
2017-09-12T03:50:31.221Z,96169.95
2017-09-12T03:52:58.792Z,96161.50
2017-09-12T03:55:26.346Z,96154.68
2017-09-12T03:57:54.281Z,96161.50
2017-09-12T04:00:21.822Z,96156.83
2017-09-12T04:02:49.459Z,96162.77
2017-09-12T04:05:17.086Z,96165.33
2017-09-12T04:07:44.655Z,96159.86
2017-09-12T04:10:12.224Z,96158.16
2017-09-12T04:12:39.803Z,96155.19
2017-09-12T04:15:07.696Z,96145.88
2017-09-12T04:17:35.242Z,96149.28
2017-09-12T04:20:04.423Z,96158.59
2017-09-12T04:22:32.071Z,96150.95
2017-09-12T04:24:59.664Z,96164.12
2017-09-12T04:27:27.242Z,96161.59
2017-09-12T04:29:54.798Z,96159.94
2017-09-12T04:32:22.730Z,96161.27
2017-09-12T04:34:50.298Z,96161.29
2017-09-12T04:37:18.187Z,96158.75
2017-09-12T04:39:45.756Z,96152.87
2017-09-12T04:42:13.759Z,96158.36
2017-09-12T04:44:41.329Z,96157.47
2017-09-12T04:47:08.946Z,96162.53
2017-09-12T04:49:36.819Z,96165.52
2017-09-12T04:52:04.380Z,96168.03
2017-09-12T04:54:31.949Z,96169.33
2017-09-12T04:56:59.793Z,96162.09
2017-09-12T04:59:27.355Z,96163.37
2017-09-12T05:01:54.951Z,96157.06
2017-09-12T05:04:23.235Z,96159.23
2017-09-12T05:06:50.942Z,96159.26
2017-09-12T05:09:18.522Z,96172.38
2017-09-12T05:11:46.087Z,96166.87
2017-09-12T05:14:13.660Z,96175.78
2017-09-12T05:16:41.296Z,96174.91
2017-09-12T05:19:08.855Z,96177.91
2017-09-12T05:21:36.689Z,96179.56
2017-09-12T05:24:04.279Z,96179.05
2017-09-12T05:26:31.885Z,96183.27
2017-09-12T05:28:59.437Z,96184.88
2017-09-12T05:31:27.024Z,96189.91
2017-09-12T05:33:54.621Z,96189.87
2017-09-12T05:36:22.208Z,96185.59
2017-09-12T05:38:49.762Z,96195.27
2017-09-12T05:41:17.334Z,96197.37
2017-09-12T05:43:45.189Z,96191.43
2017-09-12T05:46:12.736Z,96190.53
2017-09-12T05:48:40.288Z,96189.20
2017-09-12T05:51:07.969Z,96183.98
2017-09-12T05:53:35.540Z,96184.38
2017-09-12T05:56:03.131Z,96199.59
2017-09-12T05:58:30.692Z,96199.56
2017-09-12T06:00:58.285Z,96212.25
2017-09-12T06:03:25.849Z,96201.19
2017-09-12T06:05:54.505Z,96205.82
2017-09-12T06:08:22.045Z,96200.66
2017-09-12T06:10:49.610Z,96196.73
2017-09-12T06:13:18.757Z,96197.02
2017-09-12T06:15:46.316Z,96204.63
2017-09-12T06:18:13.907Z,96202.46
2017-09-12T06:20:41.440Z,96213.92
2017-09-12T06:23:09.028Z,96209.31
2017-09-12T06:25:36.557Z,96216.53
2017-09-12T06:28:04.484Z,96216.03
2017-09-12T06:30:32.296Z,96224.90
2017-09-12T06:32:59.878Z,96224.91
2017-09-12T06:35:27.478Z,96230.84
2017-09-12T06:37:56.077Z,96235.13
2017-09-12T06:40:23.696Z,96236.00
2017-09-12T06:42:51.383Z,96231.74
2017-09-12T06:45:22.367Z,96234.75
2017-09-12T06:47:51.362Z,96237.66
2017-09-12T06:50:20.530Z,96237.64
2017-09-12T06:55:20.914Z,96242.79
2017-09-12T06:57:51.406Z,96249.61
2017-09-12T07:00:21.278Z,96244.95
2017-09-12T07:02:50.120Z,96244.96
2017-09-12T07:05:21.569Z,96255.56
2017-09-12T07:07:52.131Z,96251.76
2017-09-12T07:10:20.923Z,96248.86
2017-09-12T07:12:49.420Z,96251.41
2017-09-12T07:15:17.053Z,96255.23
2017-09-12T07:17:45.007Z,96266.63
2017-09-12T07:20:12.656Z,96254.69
2017-09-12T07:22:42.648Z,96260.23
2017-09-12T07:25:11.567Z,96261.88
2017-09-12T07:27:39.924Z,96264.45
2017-09-12T07:30:07.546Z,96270.80
2017-09-12T07:32:35.872Z,96282.27
2017-09-12T07:35:03.489Z,96284.06
2017-09-12T07:37:32.028Z,96290.08
2017-09-12T07:39:59.911Z,96293.45
2017-09-12T07:42:27.578Z,96294.75
2017-09-12T07:44:55.171Z,96296.40
2017-09-12T07:47:22.774Z,96297.68
2017-09-12T07:49:53.013Z,96306.11
2017-09-12T07:52:21.815Z,96306.58
2017-09-12T07:54:51.243Z,96315.92
2017-09-12T07:57:18.850Z,96312.55
2017-09-12T07:59:46.370Z,96317.69
2017-09-12T08:02:14.254Z,96319.80
2017-09-12T08:04:46.419Z,96325.38
2017-09-12T08:07:14.024Z,96320.67
2017-09-12T08:09:43.323Z,96322.38
2017-09-12T08:12:12.542Z,96325.78
2017-09-12T08:14:41.929Z,96325.71
2017-09-12T08:17:10.449Z,96336.22
2017-09-12T08:19:38.005Z,96339.14
2017-09-12T08:22:05.621Z,96344.09
2017-09-12T08:24:33.191Z,96348.25
2017-09-12T08:27:07.781Z,96347.01
2017-09-12T08:29:43.780Z,96349.98
2017-09-12T08:32:24.214Z,96344.41
2017-09-12T08:34:53.052Z,96354.56
2017-09-12T08:37:22.767Z,96348.22
2017-09-12T08:39:52.449Z,96356.67
2017-09-12T08:42:22.165Z,96360.80
2017-09-12T08:44:51.130Z,96364.98
2017-09-12T08:47:18.774Z,96361.46
2017-09-12T08:49:46.705Z,96362.27
2017-09-12T08:52:14.274Z,96369.09
2017-09-12T08:54:42.987Z,96365.28
2017-09-12T08:57:11.741Z,96368.28
2017-09-12T08:59:40.919Z,96377.31
2017-09-12T09:02:08.825Z,96383.33
2017-09-12T09:04:36.437Z,96379.53
2017-09-12T09:07:06.173Z,96377.80
2017-09-12T09:09:33.967Z,96375.66
2017-09-12T09:12:02.873Z,96386.19
2017-09-12T09:14:30.929Z,96379.70
2017-09-12T09:16:58.545Z,96376.23
2017-09-12T09:19:26.258Z,96377.48
2017-09-12T09:21:53.911Z,96387.69
2017-09-12T09:24:23.254Z,96384.23
2017-09-12T09:26:51.713Z,96388.96
2017-09-12T09:29:19.373Z,96393.21
2017-09-12T09:31:48.534Z,96396.16
2017-09-12T09:34:16.159Z,96395.34
2017-09-12T09:36:43.786Z,96394.86
2017-09-12T09:39:15.743Z,96394.73
2017-09-12T09:41:43.366Z,96397.16
2017-09-12T09:44:12.558Z,96395.09
2017-09-12T09:46:40.987Z,96405.97
2017-09-12T09:49:08.652Z,96405.13
2017-09-12T09:51:36.352Z,96409.30
2017-09-12T09:54:03.938Z,96411.78
2017-09-12T09:56:33.226Z,96421.13
2017-09-12T09:59:02.562Z,96414.30
2017-09-12T10:01:30.182Z,96418.91
2017-09-12T10:03:58.081Z,96425.66
2017-09-12T10:06:26.410Z,96429.57
2017-09-12T10:08:54.008Z,96437.58
2017-09-12T10:11:22.531Z,96439.41
2017-09-12T10:13:51.875Z,96432.63
2017-09-12T10:16:19.827Z,96433.77
2017-09-12T10:18:47.420Z,96431.63
2017-09-12T10:21:15.010Z,96443.33
2017-09-12T10:23:44.683Z,96440.66
2017-09-12T10:26:13.743Z,96437.41
2017-09-12T10:28:42.152Z,96439.36
2017-09-12T10:31:09.745Z,96437.94
2017-09-12T10:33:37.626Z,96431.89
2017-09-12T10:36:05.202Z,96438.00
2017-09-12T10:38:33.197Z,96432.74
2017-09-12T10:41:02.009Z,96434.78
2017-09-12T10:43:29.537Z,96433.45
2017-09-12T10:45:57.436Z,96433.41
2017-09-12T10:48:25.023Z,96428.06
2017-09-12T10:50:54.180Z,96432.36
2017-09-12T10:53:23.727Z,96426.12
2017-09-12T10:55:52.922Z,96430.77
2017-09-12T10:58:22.310Z,96429.00
2017-09-12T11:00:49.913Z,96428.94
2017-09-12T11:03:18.157Z,96433.09
2017-09-12T11:05:45.814Z,96433.80
2017-09-12T11:08:13.494Z,96434.62
2017-09-12T11:10:41.145Z,96442.91
2017-09-12T11:13:08.865Z,96447.32
2017-09-12T11:15:36.761Z,96441.36
2017-09-12T11:18:04.371Z,96449.20
2017-09-12T11:20:32.711Z,96452.03
2017-09-12T11:23:00.348Z,96447.99
2017-09-12T11:25:27.934Z,96446.61
2017-09-12T11:27:55.796Z,96455.17
2017-09-12T11:30:23.366Z,96455.34
2017-09-12T11:32:50.951Z,96459.30
2017-09-12T11:35:18.625Z,96458.22
2017-09-12T11:37:46.242Z,96471.48
2017-09-12T11:40:14.190Z,96483.08
2017-09-12T11:42:41.811Z,96477.11
2017-09-12T11:45:09.401Z,96483.64
2017-09-12T11:47:37.048Z,96489.73
2017-09-12T11:50:04.617Z,96488.91
2017-09-12T11:52:32.487Z,96490.52
2017-09-12T11:55:00.087Z,96478.91
2017-09-12T11:57:27.726Z,96485.70
2017-09-12T11:59:55.643Z,96488.11
2017-09-12T12:02:24.431Z,96491.99
2017-09-12T12:04:52.031Z,96497.25
2017-09-12T12:07:20.026Z,96502.03
2017-09-12T12:09:48.401Z,96504.38
2017-09-12T12:12:16.019Z,96508.39
2017-09-12T12:14:43.662Z,96512.22
2017-09-12T12:17:11.280Z,96515.31
2017-09-12T12:19:39.288Z,96517.61
2017-09-12T12:22:06.882Z,96515.24
2017-09-12T12:24:34.478Z,96516.50
2017-09-12T12:27:02.384Z,96521.88
2017-09-12T12:29:29.977Z,96529.41
2017-09-12T12:31:57.611Z,96529.41
2017-09-12T12:34:25.298Z,96532.83
2017-09-12T12:36:52.898Z,96537.85
2017-09-12T12:39:22.240Z,96534.89
2017-09-12T12:41:49.900Z,96529.36
2017-09-12T12:44:17.520Z,96524.39
2017-09-12T12:46:45.135Z,96508.95
2017-09-12T12:49:12.815Z,96510.55
2017-09-12T12:51:41.033Z,96507.12
2017-09-12T12:54:10.159Z,96497.73
2017-09-12T12:56:38.074Z,96493.40
2017-09-12T12:59:05.666Z,96497.98
2017-09-12T13:01:34.619Z,96505.64
2017-09-12T13:04:02.224Z,96499.28
2017-09-12T13:06:29.800Z,96499.10
2017-09-12T13:08:57.670Z,96487.98
2017-09-12T13:11:25.278Z,96477.23
2017-09-12T13:13:52.877Z,96477.15
2017-09-12T13:16:20.564Z,96472.09
2017-09-12T13:18:48.152Z,96476.67
2017-09-12T13:21:16.021Z,96485.63
2017-09-12T13:23:43.593Z,96486.14
2017-09-12T13:26:11.171Z,96484.84
2017-09-12T13:28:38.756Z,96495.06
2017-09-12T13:31:06.891Z,96506.31
2017-09-12T13:33:34.754Z,96507.64
2017-09-12T13:36:02.302Z,96514.03
2017-09-12T13:38:29.882Z,96519.06
2017-09-12T13:40:57.827Z,96519.03
2017-09-12T13:43:26.559Z,96517.33
2017-09-12T13:45:54.133Z,96524.55
2017-09-12T13:48:21.670Z,96527.10
2017-09-12T13:50:49.233Z,96538.05
2017-09-12T13:53:17.105Z,96534.53
2017-09-12T13:55:46.174Z,96532.72
2017-09-12T13:58:13.781Z,96543.23
2017-09-12T14:00:41.458Z,96542.70
2017-09-12T14:03:09.096Z,96545.73
2017-09-12T14:05:36.690Z,96548.75
2017-09-12T14:08:04.275Z,96547.84
2017-09-12T14:10:32.146Z,96552.12
2017-09-12T14:12:59.883Z,96559.89
2017-09-12T14:15:27.471Z,96564.69
2017-09-12T14:17:55.082Z,96561.79
2017-09-12T14:20:22.706Z,96557.88
2017-09-12T14:22:50.623Z,96558.30
2017-09-12T14:25:18.242Z,96554.66
2017-09-12T14:27:45.850Z,96552.36
2017-09-12T14:30:13.475Z,96546.43
2017-09-12T14:32:41.093Z,96535.02
2017-09-12T14:35:09.001Z,96535.98
2017-09-12T14:37:36.601Z,96542.09
2017-09-12T14:40:04.283Z,96536.84
2017-09-12T14:42:31.971Z,96531.84
2017-09-12T14:44:59.581Z,96541.34
2017-09-12T14:47:27.271Z,96540.50
2017-09-12T14:49:54.901Z,96557.39
2017-09-12T14:52:22.759Z,96547.20
2017-09-12T14:54:50.336Z,96552.42
2017-09-12T14:57:17.901Z,96556.17
2017-09-12T14:59:45.515Z,96558.27
2017-09-12T15:02:13.097Z,96562.75
2017-09-12T15:04:40.715Z,96568.78
2017-09-12T15:07:08.296Z,96576.99
2017-09-12T15:09:36.139Z,96566.82
2017-09-12T15:12:04.053Z,96575.77
2017-09-12T15:14:31.672Z,96583.58
2017-09-12T15:16:59.320Z,96571.75
2017-09-12T15:19:26.926Z,96575.77
2017-09-12T15:21:54.827Z,96575.97
2017-09-12T15:24:22.434Z,96569.00
2017-09-12T15:26:50.066Z,96569.14
2017-09-12T15:29:17.686Z,96560.23
2017-09-12T15:31:45.432Z,96567.92
2017-09-12T15:34:13.043Z,96568.19
2017-09-12T15:36:40.708Z,96575.25
2017-09-12T15:39:08.341Z,96577.44
2017-09-12T15:41:36.025Z,96582.67
2017-09-12T15:44:03.635Z,96575.58
2017-09-12T15:46:31.544Z,96580.28
2017-09-12T15:48:59.139Z,96576.13
2017-09-12T15:51:26.744Z,96585.45
2017-09-12T15:53:55.901Z,96585.95
2017-09-12T15:56:23.467Z,96594.42
2017-09-12T15:58:51.303Z,96601.60
2017-09-12T16:01:18.861Z,96606.63
2017-09-12T16:06:20.189Z,96605.33
2017-09-12T16:08:49.339Z,96613.33
2017-09-12T16:11:17.085Z,96619.64
2017-09-12T16:13:44.710Z,96617.45
2017-09-12T16:16:12.893Z,96618.74
2017-09-12T16:18:40.480Z,96614.39
2017-09-12T16:21:08.092Z,96615.23
2017-09-12T16:23:35.717Z,96624.99
2017-09-12T16:26:03.302Z,96626.34
2017-09-12T16:28:30.899Z,96631.10
2017-09-12T16:30:58.598Z,96641.81
2017-09-12T16:33:26.502Z,96636.73
2017-09-12T16:35:54.100Z,96635.91
2017-09-12T16:38:21.645Z,96644.91
2017-09-12T16:40:49.212Z,96651.30
2017-09-12T16:43:16.754Z,96649.69
2017-09-12T16:45:44.430Z,96645.02
2017-09-12T16:48:11.998Z,96650.59
2017-09-12T16:50:39.867Z,96648.14
2017-09-12T16:53:07.455Z,96651.52
2017-09-12T16:55:35.043Z,96646.44
2017-09-12T16:58:02.736Z,96645.22
2017-09-12T17:00:30.304Z,96641.00
2017-09-12T17:02:57.877Z,96643.95
2017-09-12T17:05:25.451Z,96648.16
2017-09-12T17:07:54.480Z,96655.83
2017-09-12T17:10:22.083Z,96657.95
2017-09-12T17:12:49.683Z,96663.61
2017-09-12T17:15:17.285Z,96663.22
2017-09-12T17:17:44.854Z,96668.34
2017-09-12T17:20:12.739Z,96673.45
2017-09-12T17:22:40.313Z,96671.83
2017-09-12T17:25:07.884Z,96672.28
2017-09-12T17:27:35.465Z,96686.36
2017-09-12T17:30:36.686Z,96685.98
2017-09-12T17:33:04.300Z,96688.11
2017-09-12T17:35:32.007Z,96692.39
2017-09-12T17:37:59.946Z,96689.03
2017-09-12T17:40:27.688Z,96695.42
2017-09-12T17:42:55.250Z,96698.83
2017-09-12T17:45:22.866Z,96707.31
2017-09-12T17:47:50.499Z,96705.20
2017-09-12T17:50:18.145Z,96708.19
2017-09-12T17:52:45.769Z,96711.99
2017-09-12T17:55:13.558Z,96714.98
2017-09-12T17:57:41.141Z,96724.36
2017-09-12T18:00:08.696Z,96724.35
2017-09-12T18:02:37.364Z,96727.75
2017-09-12T18:05:05.507Z,96726.52
2017-09-12T18:07:33.111Z,96738.39
2017-09-12T18:10:00.712Z,96738.40
2017-09-12T18:12:28.617Z,96743.50
2017-09-12T18:14:56.611Z,96753.70
2017-09-12T18:17:24.575Z,96760.48
2017-09-12T18:19:52.841Z,96763.05
2017-09-12T18:22:20.814Z,96760.92
2017-09-12T18:24:48.887Z,96777.89
2017-09-12T18:27:16.507Z,96774.50
2017-09-12T18:29:44.390Z,96781.70
2017-09-12T18:32:11.996Z,96792.32
2017-09-12T18:34:39.844Z,96798.67
2017-09-12T18:37:07.631Z,96802.92
2017-09-12T18:39:35.538Z,96813.11
2017-09-12T18:42:03.555Z,96818.62
2017-09-12T18:44:31.311Z,96820.73
2017-09-12T18:46:58.975Z,96818.20
2017-09-12T18:49:26.554Z,96825.39
2017-09-12T18:51:54.278Z,96820.75
2017-09-12T18:54:21.845Z,96822.02
2017-09-12T18:56:49.476Z,96831.75
2017-09-12T18:59:17.417Z,96840.25
2017-09-12T19:01:52.290Z,96838.56
2017-09-12T19:04:21.551Z,96844.91
2017-09-12T19:06:49.117Z,96847.89
2017-09-12T19:09:17.247Z,96851.28
2017-09-12T19:11:44.846Z,96850.44
2017-09-12T19:14:12.463Z,96852.98
2017-09-12T19:16:40.098Z,96857.20
2017-09-12T19:19:07.705Z,96856.38
2017-09-12T19:21:36.624Z,96862.73
2017-09-12T19:24:04.334Z,96864.44
2017-09-12T19:26:32.360Z,96869.09
2017-09-12T19:29:00.014Z,96872.06
2017-09-12T19:31:27.613Z,96869.52
2017-09-12T19:33:55.254Z,96874.62
2017-09-12T19:36:22.848Z,96877.56
2017-09-12T19:38:50.438Z,96882.67
2017-09-12T19:41:18.039Z,96884.80
2017-09-12T19:43:46.764Z,96891.14
2017-09-12T19:46:14.354Z,96893.27
2017-09-12T19:48:42.042Z,96892.42
2017-09-12T19:51:09.729Z,96895.39
2017-09-12T19:53:37.322Z,96897.95
2017-09-12T19:56:04.953Z,96899.21
2017-09-12T19:58:32.592Z,96902.16
2017-09-12T20:01:01.255Z,96903.45
2017-09-12T20:03:28.838Z,96896.25
2017-09-12T20:05:56.477Z,96903.88
2017-09-12T20:08:25.198Z,96911.48
2017-09-12T20:10:53.655Z,96906.00
2017-09-12T20:13:24.834Z,96904.72
2017-09-12T20:15:53.543Z,96914.87
2017-09-12T20:18:22.316Z,96911.91
2017-09-12T20:20:50.640Z,96911.05
2017-09-12T20:23:19.572Z,96909.34
2017-09-12T20:25:48.265Z,96914.87
2017-09-12T20:28:18.591Z,96914.02
2017-09-12T20:30:46.746Z,96912.77
2017-09-12T20:33:15.607Z,96917.42
2017-09-12T20:35:44.101Z,96922.53
2017-09-12T20:38:13.003Z,96927.19
2017-09-12T20:40:40.742Z,96930.14
2017-09-12T20:43:09.700Z,96932.70
2017-09-12T20:45:39.329Z,96933.98
2017-09-12T20:48:08.490Z,96939.48
2017-09-12T20:50:36.102Z,96941.62
2017-09-12T20:53:04.804Z,96947.14
2017-09-12T20:55:33.356Z,96946.28
2017-09-12T20:58:00.932Z,96944.16
2017-09-12T21:00:31.341Z,96940.77
2017-09-12T21:03:00.288Z,96944.99
2017-09-12T21:05:28.622Z,96950.94
2017-09-12T21:07:56.785Z,96956.05
2017-09-12T21:10:25.582Z,96953.48
2017-09-12T21:12:55.073Z,96951.36
2017-09-12T21:15:22.649Z,96950.94
2017-09-12T21:17:50.271Z,96950.92
2017-09-12T21:20:18.957Z,96958.56
2017-09-12T21:22:46.599Z,96960.69
2017-09-12T21:25:15.628Z,96963.23
2017-09-12T21:27:45.189Z,96969.58
2017-09-12T21:30:12.864Z,96971.72
2017-09-12T21:32:40.726Z,96967.89
2017-09-12T21:35:09.430Z,96978.94
2017-09-12T21:37:37.015Z,96971.73
2017-09-12T21:40:06.221Z,96970.87
2017-09-12T21:42:34.036Z,96967.92
2017-09-12T21:45:01.870Z,96966.66
2017-09-12T21:47:29.436Z,96969.19
2017-09-12T21:49:57.558Z,96972.59
2017-09-12T21:52:25.224Z,96971.30
2017-09-12T21:54:53.852Z,96976.39
2017-09-12T21:57:21.426Z,96966.64
2017-09-12T21:59:49.045Z,96972.98
2017-09-12T22:02:16.622Z,96971.73
2017-09-12T22:04:44.187Z,96969.61
2017-09-12T22:07:11.814Z,96968.77
2017-09-12T22:09:39.359Z,96969.61
2017-09-12T22:12:06.932Z,96968.33
2017-09-12T22:14:35.566Z,96966.22
2017-09-12T22:17:03.753Z,96972.14
2017-09-12T22:19:31.333Z,96962.80
2017-09-12T22:21:58.989Z,96961.97
2017-09-12T22:24:26.681Z,96961.95
2017-09-12T22:26:54.253Z,96969.59
2017-09-12T22:29:21.902Z,96971.70
2017-09-12T22:31:49.476Z,96964.90
2017-09-12T22:34:17.187Z,96968.30
2017-09-12T22:36:44.788Z,96967.87
2017-09-12T22:39:12.396Z,96966.19
2017-09-12T22:41:39.950Z,96963.21
2017-09-12T22:44:07.912Z,96967.44
2017-09-12T22:46:35.476Z,96970.84
2017-09-12T22:49:05.058Z,96970.02
2017-09-12T22:51:32.655Z,96972.55
2017-09-12T22:54:00.211Z,96968.30
2017-09-12T22:56:27.860Z,96969.57
2017-09-12T22:58:55.422Z,96971.70
2017-09-12T23:01:23.148Z,96969.98
2017-09-12T23:03:50.713Z,96972.97
2017-09-12T23:06:18.357Z,96977.65
2017-09-12T23:08:45.910Z,96964.06
2017-09-12T23:11:14.346Z,96974.66
2017-09-12T23:13:41.964Z,96974.67
2017-09-12T23:16:09.543Z,96973.41
2017-09-12T23:18:37.171Z,96973.39
2017-09-12T23:21:05.414Z,96966.61
2017-09-12T23:23:33.033Z,96976.36
2017-09-12T23:26:00.602Z,96973.81
2017-09-12T23:28:28.303Z,96970.84
2017-09-12T23:30:55.861Z,96983.56
2017-09-12T23:33:23.450Z,96973.80
2017-09-12T23:35:51.014Z,96977.19
2017-09-12T23:38:18.598Z,96976.33
2017-09-12T23:40:46.765Z,96970.38
2017-09-12T23:43:14.374Z,96969.92
2017-09-12T23:45:42.847Z,96973.30
2017-09-12T23:48:10.400Z,96968.20
2017-09-12T23:50:38.008Z,96966.91
2017-09-12T23:53:05.761Z,96966.05
2017-09-12T23:55:33.401Z,96964.77
2017-09-12T23:58:00.995Z,96966.91
